sensor_id;sensor_type;location;lat;lon;timestamp;P1;durP1;ratioP1;P2;durP2;ratioP2
52380;SDS011;38310;52.796;6.942;2023-06-26T00:00:40;14.20;;;12.77;;
52380;SDS011;38310;52.796;6.942;2023-06-26T00:03:06;12.57;;;11.27;;
52380;SDS011;38310;52.796;6.942;2023-06-26T00:05:32;13.55;;;12.18;;
52380;SDS011;38310;52.796;6.942;2023-06-26T00:07:59;13.80;;;12.50;;
52380;SDS011;38310;52.796;6.942;2023-06-26T00:10:28;13.85;;;12.45;;
52380;SDS011;38310;52.796;6.942;2023-06-26T00:12:54;13.32;;;11.93;;
52380;SDS011;38310;52.796;6.942;2023-06-26T00:15:20;13.95;;;12.55;;
52380;SDS011;38310;52.796;6.942;2023-06-26T00:17:45;14.88;;;12.45;;
52380;SDS011;38310;52.796;6.942;2023-06-26T00:20:11;13.38;;;11.98;;
52380;SDS011;38310;52.796;6.942;2023-06-26T00:22:37;14.43;;;11.90;;
52380;SDS011;38310;52.796;6.942;2023-06-26T00:25:06;12.73;;;11.52;;
52380;SDS011;38310;52.796;6.942;2023-06-26T00:27:32;13.20;;;11.90;;
52380;SDS011;38310;52.796;6.942;2023-06-26T00:29:58;14.18;;;12.80;;
52380;SDS011;38310;52.796;6.942;2023-06-26T00:32:23;13.38;;;11.75;;
52380;SDS011;38310;52.796;6.942;2023-06-26T00:34:49;14.05;;;12.65;;
52380;SDS011;38310;52.796;6.942;2023-06-26T00:37:15;13.63;;;12.32;;
52380;SDS011;38310;52.796;6.942;2023-06-26T00:39:41;12.90;;;11.45;;
52380;SDS011;38310;52.796;6.942;2023-06-26T00:42:07;14.77;;;12.88;;
52380;SDS011;38310;52.796;6.942;2023-06-26T00:44:32;12.85;;;11.65;;
52380;SDS011;38310;52.796;6.942;2023-06-26T00:46:58;14.15;;;12.68;;
52380;SDS011;38310;52.796;6.942;2023-06-26T00:49:24;14.10;;;12.75;;
52380;SDS011;38310;52.796;6.942;2023-06-26T00:51:51;14.13;;;12.52;;
52380;SDS011;38310;52.796;6.942;2023-06-26T00:54:17;12.55;;;11.25;;
52380;SDS011;38310;52.796;6.942;2023-06-26T00:56:45;13.45;;;12.15;;
52380;SDS011;38310;52.796;6.942;2023-06-26T00:59:12;13.50;;;12.20;;
52380;SDS011;38310;52.796;6.942;2023-06-26T01:01:38;16.65;;;13.63;;
52380;SDS011;38310;52.796;6.942;2023-06-26T01:04:04;13.60;;;12.20;;
52380;SDS011;38310;52.796;6.942;2023-06-26T01:06:31;12.85;;;11.55;;
52380;SDS011;38310;52.796;6.942;2023-06-26T01:09:00;15.05;;;13.52;;
52380;SDS011;38310;52.796;6.942;2023-06-26T01:11:27;14.38;;;12.63;;
52380;SDS011;38310;52.796;6.942;2023-06-26T01:13:52;13.25;;;11.95;;
52380;SDS011;38310;52.796;6.942;2023-06-26T01:16:20;13.82;;;12.43;;
52380;SDS011;38310;52.796;6.942;2023-06-26T01:18:48;13.35;;;12.05;;
52380;SDS011;38310;52.796;6.942;2023-06-26T01:21:14;15.07;;;12.25;;
52380;SDS011;38310;52.796;6.942;2023-06-26T01:28:43;14.82;;;12.18;;
52380;SDS011;38310;52.796;6.942;2023-06-26T01:31:10;14.52;;;13.02;;
52380;SDS011;38310;52.796;6.942;2023-06-26T01:33:36;14.02;;;12.63;;
52380;SDS011;38310;52.796;6.942;2023-06-26T01:36:03;12.23;;;10.98;;
52380;SDS011;38310;52.796;6.942;2023-06-26T01:38:29;14.15;;;11.90;;
52380;SDS011;38310;52.796;6.942;2023-06-26T01:40:54;14.73;;;13.23;;
52380;SDS011;38310;52.796;6.942;2023-06-26T01:43:24;14.25;;;12.75;;
52380;SDS011;38310;52.796;6.942;2023-06-26T01:46:22;12.98;;;11.68;;
52380;SDS011;38310;52.796;6.942;2023-06-26T01:51:53;14.05;;;12.65;;
52380;SDS011;38310;52.796;6.942;2023-06-26T01:54:26;13.98;;;12.63;;
52380;SDS011;38310;52.796;6.942;2023-06-26T01:56:55;13.45;;;12.13;;
52380;SDS011;38310;52.796;6.942;2023-06-26T01:59:23;14.13;;;12.77;;
52380;SDS011;38310;52.796;6.942;2023-06-26T02:01:52;14.93;;;12.85;;
52380;SDS011;38310;52.796;6.942;2023-06-26T02:04:17;14.13;;;12.63;;
52380;SDS011;38310;52.796;6.942;2023-06-26T02:06:43;13.73;;;12.27;;
52380;SDS011;38310;52.796;6.942;2023-06-26T02:09:09;14.85;;;13.35;;
52380;SDS011;38310;52.796;6.942;2023-06-26T02:11:35;14.48;;;12.98;;
52380;SDS011;38310;52.796;6.942;2023-06-26T02:14:00;14.88;;;13.43;;
52380;SDS011;38310;52.796;6.942;2023-06-26T02:16:26;15.60;;;13.57;;
52380;SDS011;38310;52.796;6.942;2023-06-26T02:18:51;14.35;;;12.82;;
52380;SDS011;38310;52.796;6.942;2023-06-26T02:21:17;16.08;;;13.75;;
52380;SDS011;38310;52.796;6.942;2023-06-26T02:23:43;16.00;;;14.43;;
52380;SDS011;38310;52.796;6.942;2023-06-26T02:26:08;15.10;;;13.57;;
52380;SDS011;38310;52.796;6.942;2023-06-26T02:28:34;16.10;;;14.25;;
52380;SDS011;38310;52.796;6.942;2023-06-26T02:31:00;15.32;;;13.52;;
52380;SDS011;38310;52.796;6.942;2023-06-26T02:33:25;15.48;;;13.93;;
52380;SDS011;38310;52.796;6.942;2023-06-26T02:35:51;15.25;;;13.77;;
52380;SDS011;38310;52.796;6.942;2023-06-26T02:38:18;17.25;;;15.10;;
52380;SDS011;38310;52.796;6.942;2023-06-26T02:40:44;16.55;;;14.93;;
52380;SDS011;38310;52.796;6.942;2023-06-26T02:43:09;16.17;;;14.65;;
52380;SDS011;38310;52.796;6.942;2023-06-26T02:45:35;16.77;;;14.98;;
52380;SDS011;38310;52.796;6.942;2023-06-26T02:48:01;15.10;;;13.68;;
52380;SDS011;38310;52.796;6.942;2023-06-26T02:50:26;16.73;;;15.13;;
52380;SDS011;38310;52.796;6.942;2023-06-26T02:52:52;16.38;;;14.68;;
52380;SDS011;38310;52.796;6.942;2023-06-26T02:55:18;16.55;;;14.85;;
52380;SDS011;38310;52.796;6.942;2023-06-26T02:57:45;18.13;;;16.08;;
52380;SDS011;38310;52.796;6.942;2023-06-26T03:00:11;15.75;;;14.02;;
52380;SDS011;38310;52.796;6.942;2023-06-26T03:02:37;17.77;;;16.10;;
52380;SDS011;38310;52.796;6.942;2023-06-26T03:05:03;17.80;;;15.93;;
52380;SDS011;38310;52.796;6.942;2023-06-26T03:07:29;17.83;;;15.93;;
52380;SDS011;38310;52.796;6.942;2023-06-26T03:09:55;15.60;;;14.10;;
52380;SDS011;38310;52.796;6.942;2023-06-26T03:12:21;16.58;;;15.07;;
52380;SDS011;38310;52.796;6.942;2023-06-26T03:14:46;17.60;;;15.80;;
52380;SDS011;38310;52.796;6.942;2023-06-26T03:17:12;16.52;;;14.93;;
52380;SDS011;38310;52.796;6.942;2023-06-26T03:19:38;16.80;;;15.18;;
52380;SDS011;38310;52.796;6.942;2023-06-26T03:22:04;17.17;;;15.27;;
52380;SDS011;38310;52.796;6.942;2023-06-26T03:24:29;19.35;;;17.27;;
52380;SDS011;38310;52.796;6.942;2023-06-26T03:26:55;17.83;;;16.13;;
52380;SDS011;38310;52.796;6.942;2023-06-26T03:29:21;17.90;;;15.77;;
52380;SDS011;38310;52.796;6.942;2023-06-26T03:31:47;17.98;;;16.08;;
52380;SDS011;38310;52.796;6.942;2023-06-26T03:34:13;20.65;;;17.25;;
52380;SDS011;38310;52.796;6.942;2023-06-26T03:36:38;17.88;;;16.08;;
52380;SDS011;38310;52.796;6.942;2023-06-26T03:39:04;17.80;;;15.35;;
52380;SDS011;38310;52.796;6.942;2023-06-26T03:41:30;18.40;;;16.48;;
52380;SDS011;38310;52.796;6.942;2023-06-26T03:43:55;17.67;;;15.88;;
52380;SDS011;38310;52.796;6.942;2023-06-26T03:46:22;18.85;;;16.13;;
52380;SDS011;38310;52.796;6.942;2023-06-26T03:48:47;17.75;;;15.93;;
52380;SDS011;38310;52.796;6.942;2023-06-26T03:51:14;19.10;;;16.98;;
52380;SDS011;38310;52.796;6.942;2023-06-26T03:53:40;17.15;;;15.38;;
52380;SDS011;38310;52.796;6.942;2023-06-26T03:56:05;16.00;;;14.38;;
52380;SDS011;38310;52.796;6.942;2023-06-26T03:58:31;17.48;;;15.25;;
52380;SDS011;38310;52.796;6.942;2023-06-26T04:00:57;16.65;;;14.85;;
52380;SDS011;38310;52.796;6.942;2023-06-26T04:03:23;16.88;;;15.10;;
52380;SDS011;38310;52.796;6.942;2023-06-26T04:05:49;17.55;;;14.82;;
52380;SDS011;38310;52.796;6.942;2023-06-26T04:08:14;16.60;;;14.98;;
52380;SDS011;38310;52.796;6.942;2023-06-26T04:10:40;17.40;;;15.63;;
52380;SDS011;38310;52.796;6.942;2023-06-26T04:13:06;17.15;;;15.45;;
52380;SDS011;38310;52.796;6.942;2023-06-26T04:15:31;16.55;;;14.85;;
52380;SDS011;38310;52.796;6.942;2023-06-26T04:17:57;17.35;;;15.65;;
52380;SDS011;38310;52.796;6.942;2023-06-26T04:20:23;17.83;;;15.75;;
52380;SDS011;38310;52.796;6.942;2023-06-26T04:22:48;18.20;;;15.32;;
52380;SDS011;38310;52.796;6.942;2023-06-26T04:25:14;17.35;;;15.63;;
52380;SDS011;38310;52.796;6.942;2023-06-26T04:27:40;17.90;;;16.10;;
52380;SDS011;38310;52.796;6.942;2023-06-26T04:30:06;16.88;;;15.07;;
52380;SDS011;38310;52.796;6.942;2023-06-26T04:32:33;16.10;;;14.40;;
52380;SDS011;38310;52.796;6.942;2023-06-26T04:34:58;18.80;;;16.15;;
52380;SDS011;38310;52.796;6.942;2023-06-26T04:37:25;17.92;;;16.05;;
52380;SDS011;38310;52.796;6.942;2023-06-26T04:39:51;16.33;;;14.63;;
52380;SDS011;38310;52.796;6.942;2023-06-26T04:42:17;16.50;;;14.93;;
52380;SDS011;38310;52.796;6.942;2023-06-26T04:44:44;15.32;;;13.80;;
52380;SDS011;38310;52.796;6.942;2023-06-26T04:47:09;18.83;;;15.35;;
52380;SDS011;38310;52.796;6.942;2023-06-26T04:49:35;16.80;;;15.10;;
52380;SDS011;38310;52.796;6.942;2023-06-26T04:52:01;18.27;;;15.40;;
52380;SDS011;38310;52.796;6.942;2023-06-26T04:54:26;18.35;;;14.40;;
52380;SDS011;38310;52.796;6.942;2023-06-26T04:56:53;18.13;;;14.10;;
52380;SDS011;38310;52.796;6.942;2023-06-26T04:59:19;16.70;;;14.52;;
52380;SDS011;38310;52.796;6.942;2023-06-26T05:01:44;17.83;;;14.60;;
52380;SDS011;38310;52.796;6.942;2023-06-26T05:04:13;17.00;;;14.75;;
52380;SDS011;38310;52.796;6.942;2023-06-26T05:06:42;18.98;;;15.05;;
52380;SDS011;38310;52.796;6.942;2023-06-26T05:09:08;17.17;;;14.43;;
52380;SDS011;38310;52.796;6.942;2023-06-26T05:11:36;16.42;;;14.50;;
52380;SDS011;38310;52.796;6.942;2023-06-26T05:14:02;16.60;;;14.88;;
52380;SDS011;38310;52.796;6.942;2023-06-26T05:16:27;17.33;;;15.50;;
52380;SDS011;38310;52.796;6.942;2023-06-26T05:18:53;16.38;;;14.05;;
52380;SDS011;38310;52.796;6.942;2023-06-26T05:21:19;18.02;;;14.63;;
52380;SDS011;38310;52.796;6.942;2023-06-26T05:23:45;16.10;;;13.85;;
52380;SDS011;38310;52.796;6.942;2023-06-26T05:26:12;19.00;;;13.70;;
52380;SDS011;38310;52.796;6.942;2023-06-26T05:28:38;15.32;;;12.23;;
52380;SDS011;38310;52.796;6.942;2023-06-26T05:31:05;15.48;;;12.52;;
52380;SDS011;38310;52.796;6.942;2023-06-26T05:33:30;15.52;;;12.75;;
52380;SDS011;38310;52.796;6.942;2023-06-26T05:35:59;18.88;;;12.18;;
52380;SDS011;38310;52.796;6.942;2023-06-26T05:38:28;16.42;;;11.90;;
52380;SDS011;38310;52.796;6.942;2023-06-26T05:40:54;14.93;;;10.63;;
52380;SDS011;38310;52.796;6.942;2023-06-26T05:43:20;14.50;;;11.18;;
52380;SDS011;38310;52.796;6.942;2023-06-26T05:45:47;15.57;;;10.52;;
52380;SDS011;38310;52.796;6.942;2023-06-26T05:48:13;17.13;;;10.40;;
52380;SDS011;38310;52.796;6.942;2023-06-26T05:50:39;15.68;;;10.98;;
52380;SDS011;38310;52.796;6.942;2023-06-26T05:53:07;13.77;;;9.60;;
52380;SDS011;38310;52.796;6.942;2023-06-26T05:55:33;13.10;;;9.18;;
52380;SDS011;38310;52.796;6.942;2023-06-26T05:57:59;12.23;;;8.80;;
52380;SDS011;38310;52.796;6.942;2023-06-26T06:00:27;15.85;;;9.20;;
52380;SDS011;38310;52.796;6.942;2023-06-26T06:02:53;16.98;;;8.73;;
52380;SDS011;38310;52.796;6.942;2023-06-26T06:05:22;14.43;;;8.75;;
52380;SDS011;38310;52.796;6.942;2023-06-26T06:07:49;13.77;;;8.63;;
52380;SDS011;38310;52.796;6.942;2023-06-26T06:10:15;15.27;;;9.18;;
52380;SDS011;38310;52.796;6.942;2023-06-26T06:12:41;16.45;;;8.73;;
52380;SDS011;38310;52.796;6.942;2023-06-26T06:15:07;11.65;;;8.27;;
52380;SDS011;38310;52.796;6.942;2023-06-26T06:17:33;13.40;;;9.00;;
52380;SDS011;38310;52.796;6.942;2023-06-26T06:19:58;13.60;;;8.40;;
52380;SDS011;38310;52.796;6.942;2023-06-26T06:22:24;12.48;;;7.75;;
52380;SDS011;38310;52.796;6.942;2023-06-26T06:24:50;13.93;;;8.02;;
52380;SDS011;38310;52.796;6.942;2023-06-26T06:27:16;15.63;;;8.27;;
52380;SDS011;38310;52.796;6.942;2023-06-26T06:29:42;12.98;;;7.85;;
52380;SDS011;38310;52.796;6.942;2023-06-26T06:32:08;13.52;;;8.50;;
52380;SDS011;38310;52.796;6.942;2023-06-26T06:34:34;10.93;;;7.28;;
52380;SDS011;38310;52.796;6.942;2023-06-26T06:37:00;13.18;;;7.22;;
52380;SDS011;38310;52.796;6.942;2023-06-26T06:39:26;12.05;;;7.18;;
52380;SDS011;38310;52.796;6.942;2023-06-26T06:41:52;13.90;;;8.00;;
52380;SDS011;38310;52.796;6.942;2023-06-26T06:44:18;11.40;;;6.50;;
52380;SDS011;38310;52.796;6.942;2023-06-26T06:46:43;13.68;;;6.43;;
52380;SDS011;38310;52.796;6.942;2023-06-26T06:49:09;13.20;;;7.05;;
52380;SDS011;38310;52.796;6.942;2023-06-26T06:51:35;9.80;;;5.80;;
52380;SDS011;38310;52.796;6.942;2023-06-26T06:54:01;10.93;;;6.18;;
52380;SDS011;38310;52.796;6.942;2023-06-26T06:56:27;8.75;;;5.10;;
52380;SDS011;38310;52.796;6.942;2023-06-26T06:58:53;11.15;;;4.60;;
52380;SDS011;38310;52.796;6.942;2023-06-26T07:01:18;8.02;;;4.18;;
52380;SDS011;38310;52.796;6.942;2023-06-26T07:03:44;7.85;;;4.10;;
52380;SDS011;38310;52.796;6.942;2023-06-26T07:06:10;8.30;;;3.92;;
52380;SDS011;38310;52.796;6.942;2023-06-26T07:08:35;5.97;;;3.50;;
52380;SDS011;38310;52.796;6.942;2023-06-26T07:11:01;8.90;;;3.97;;
52380;SDS011;38310;52.796;6.942;2023-06-26T07:13:28;8.15;;;3.55;;
52380;SDS011;38310;52.796;6.942;2023-06-26T07:15:53;10.77;;;3.35;;
52380;SDS011;38310;52.796;6.942;2023-06-26T07:18:19;6.72;;;2.78;;
52380;SDS011;38310;52.796;6.942;2023-06-26T07:20:45;5.53;;;2.40;;
52380;SDS011;38310;52.796;6.942;2023-06-26T07:23:10;5.90;;;2.58;;
52380;SDS011;38310;52.796;6.942;2023-06-26T07:25:36;6.93;;;2.42;;
52380;SDS011;38310;52.796;6.942;2023-06-26T07:28:02;4.60;;;2.60;;
52380;SDS011;38310;52.796;6.942;2023-06-26T07:30:28;7.18;;;2.80;;
52380;SDS011;38310;52.796;6.942;2023-06-26T07:32:53;4.70;;;2.58;;
52380;SDS011;38310;52.796;6.942;2023-06-26T07:35:19;5.90;;;2.38;;
52380;SDS011;38310;52.796;6.942;2023-06-26T07:37:45;8.93;;;2.38;;
52380;SDS011;38310;52.796;6.942;2023-06-26T07:40:11;5.55;;;2.10;;
52380;SDS011;38310;52.796;6.942;2023-06-26T07:42:36;6.22;;;2.08;;
52380;SDS011;38310;52.796;6.942;2023-06-26T07:45:02;8.40;;;2.40;;
52380;SDS011;38310;52.796;6.942;2023-06-26T07:47:35;3.70;;;1.75;;
52380;SDS011;38310;52.796;6.942;2023-06-26T07:50:01;6.15;;;2.28;;
52380;SDS011;38310;52.796;6.942;2023-06-26T07:52:27;6.70;;;2.00;;
52380;SDS011;38310;52.796;6.942;2023-06-26T07:54:53;5.88;;;1.90;;
52380;SDS011;38310;52.796;6.942;2023-06-26T07:57:18;5.40;;;2.25;;
52380;SDS011;38310;52.796;6.942;2023-06-26T07:59:44;4.28;;;2.28;;
52380;SDS011;38310;52.796;6.942;2023-06-26T08:02:10;4.93;;;2.08;;
52380;SDS011;38310;52.796;6.942;2023-06-26T08:04:36;6.97;;;2.15;;
52380;SDS011;38310;52.796;6.942;2023-06-26T08:07:01;5.72;;;1.73;;
52380;SDS011;38310;52.796;6.942;2023-06-26T08:09:29;5.13;;;2.00;;
52380;SDS011;38310;52.796;6.942;2023-06-26T08:11:55;6.95;;;2.10;;
52380;SDS011;38310;52.796;6.942;2023-06-26T08:14:22;4.20;;;1.98;;
52380;SDS011;38310;52.796;6.942;2023-06-26T08:16:48;7.18;;;2.33;;
52380;SDS011;38310;52.796;6.942;2023-06-26T08:19:14;6.80;;;1.80;;
52380;SDS011;38310;52.796;6.942;2023-06-26T08:21:41;5.90;;;2.22;;
52380;SDS011;38310;52.796;6.942;2023-06-26T08:24:07;4.38;;;2.28;;
52380;SDS011;38310;52.796;6.942;2023-06-26T08:26:33;7.38;;;2.63;;
52380;SDS011;38310;52.796;6.942;2023-06-26T08:29:00;6.28;;;2.20;;
52380;SDS011;38310;52.796;6.942;2023-06-26T08:31:25;7.13;;;2.35;;
52380;SDS011;38310;52.796;6.942;2023-06-26T08:33:51;7.25;;;2.47;;
52380;SDS011;38310;52.796;6.942;2023-06-26T08:36:17;4.22;;;2.10;;
52380;SDS011;38310;52.796;6.942;2023-06-26T08:38:43;6.38;;;2.25;;
52380;SDS011;38310;52.796;6.942;2023-06-26T08:41:08;6.90;;;1.90;;
52380;SDS011;38310;52.796;6.942;2023-06-26T08:43:35;5.28;;;2.13;;
52380;SDS011;38310;52.796;6.942;2023-06-26T08:46:01;6.57;;;1.65;;
52380;SDS011;38310;52.796;6.942;2023-06-26T08:48:29;5.53;;;2.00;;
52380;SDS011;38310;52.796;6.942;2023-06-26T08:50:57;5.25;;;1.88;;
52380;SDS011;38310;52.796;6.942;2023-06-26T08:56:24;6.50;;;1.92;;
52380;SDS011;38310;52.796;6.942;2023-06-26T08:58:53;5.60;;;1.90;;
52380;SDS011;38310;52.796;6.942;2023-06-26T09:01:20;3.95;;;1.70;;
52380;SDS011;38310;52.796;6.942;2023-06-26T09:03:46;12.48;;;2.10;;
52380;SDS011;38310;52.796;6.942;2023-06-26T09:06:11;9.98;;;1.67;;
52380;SDS011;38310;52.796;6.942;2023-06-26T09:08:37;4.90;;;1.55;;
52380;SDS011;38310;52.796;6.942;2023-06-26T09:11:03;7.28;;;1.58;;
52380;SDS011;38310;52.796;6.942;2023-06-26T09:13:29;5.68;;;1.80;;
52380;SDS011;38310;52.796;6.942;2023-06-26T09:15:55;4.47;;;1.67;;
52380;SDS011;38310;52.796;6.942;2023-06-26T09:18:21;3.95;;;1.40;;
52380;SDS011;38310;52.796;6.942;2023-06-26T09:20:48;6.25;;;1.77;;
52380;SDS011;38310;52.796;6.942;2023-06-26T09:23:14;5.65;;;1.77;;
52380;SDS011;38310;52.796;6.942;2023-06-26T09:25:40;5.85;;;2.05;;
52380;SDS011;38310;52.796;6.942;2023-06-26T09:28:06;3.33;;;1.70;;
52380;SDS011;38310;52.796;6.942;2023-06-26T09:30:33;5.07;;;1.92;;
52380;SDS011;38310;52.796;6.942;2023-06-26T09:33:21;5.00;;;1.73;;
52380;SDS011;38310;52.796;6.942;2023-06-26T09:35:46;4.43;;;1.90;;
52380;SDS011;38310;52.796;6.942;2023-06-26T09:38:13;5.32;;;2.03;;
52380;SDS011;38310;52.796;6.942;2023-06-26T09:40:43;4.60;;;1.85;;
52380;SDS011;38310;52.796;6.942;2023-06-26T09:43:09;4.25;;;1.90;;
52380;SDS011;38310;52.796;6.942;2023-06-26T09:45:39;5.70;;;2.13;;
52380;SDS011;38310;52.796;6.942;2023-06-26T09:48:05;5.93;;;1.98;;
52380;SDS011;38310;52.796;6.942;2023-06-26T09:50:36;3.88;;;1.77;;
52380;SDS011;38310;52.796;6.942;2023-06-26T09:53:07;7.03;;;1.88;;
52380;SDS011;38310;52.796;6.942;2023-06-26T09:55:38;5.90;;;2.22;;
52380;SDS011;38310;52.796;6.942;2023-06-26T09:58:09;5.47;;;2.25;;
52380;SDS011;38310;52.796;6.942;2023-06-26T10:00:40;5.18;;;2.28;;
52380;SDS011;38310;52.796;6.942;2023-06-26T10:03:06;6.60;;;2.35;;
52380;SDS011;38310;52.796;6.942;2023-06-26T10:05:33;5.07;;;1.83;;
52380;SDS011;38310;52.796;6.942;2023-06-26T10:08:00;8.07;;;2.25;;
52380;SDS011;38310;52.796;6.942;2023-06-26T10:10:27;5.88;;;2.13;;
52380;SDS011;38310;52.796;6.942;2023-06-26T10:12:59;4.53;;;2.00;;
52380;SDS011;38310;52.796;6.942;2023-06-26T10:15:27;4.82;;;2.35;;
52380;SDS011;38310;52.796;6.942;2023-06-26T10:17:55;5.95;;;2.20;;
52380;SDS011;38310;52.796;6.942;2023-06-26T10:20:22;5.68;;;2.47;;
52380;SDS011;38310;52.796;6.942;2023-06-26T10:22:49;5.65;;;1.80;;
52380;SDS011;38310;52.796;6.942;2023-06-26T10:25:16;6.68;;;2.30;;
52380;SDS011;38310;52.796;6.942;2023-06-26T10:27:45;4.95;;;2.10;;
52380;SDS011;38310;52.796;6.942;2023-06-26T10:30:17;4.25;;;1.90;;
52380;SDS011;38310;52.796;6.942;2023-06-26T10:32:46;3.95;;;2.00;;
52380;SDS011;38310;52.796;6.942;2023-06-26T10:35:12;3.85;;;2.30;;
52380;SDS011;38310;52.796;6.942;2023-06-26T10:37:48;4.45;;;2.13;;
52380;SDS011;38310;52.796;6.942;2023-06-26T10:40:20;4.00;;;1.67;;
52380;SDS011;38310;52.796;6.942;2023-06-26T10:42:49;3.75;;;1.58;;
52380;SDS011;38310;52.796;6.942;2023-06-26T10:45:19;3.92;;;1.55;;
52380;SDS011;38310;52.796;6.942;2023-06-26T10:47:46;5.93;;;1.70;;
52380;SDS011;38310;52.796;6.942;2023-06-26T10:52:42;4.50;;;2.05;;
52380;SDS011;38310;52.796;6.942;2023-06-26T10:55:08;4.63;;;2.03;;
52380;SDS011;38310;52.796;6.942;2023-06-26T10:57:35;5.95;;;2.10;;
52380;SDS011;38310;52.796;6.942;2023-06-26T11:00:10;4.05;;;1.52;;
52380;SDS011;38310;52.796;6.942;2023-06-26T11:02:52;6.05;;;1.80;;
52380;SDS011;38310;52.796;6.942;2023-06-26T11:05:28;4.03;;;1.60;;
52380;SDS011;38310;52.796;6.942;2023-06-26T11:08:07;3.95;;;1.70;;
52380;SDS011;38310;52.796;6.942;2023-06-26T11:11:09;4.47;;;1.95;;
52380;SDS011;38310;52.796;6.942;2023-06-26T11:13:28;5.40;;;2.40;;
52380;SDS011;38310;52.796;6.942;2023-06-26T11:15:55;6.10;;;2.38;;
52380;SDS011;38310;52.796;6.942;2023-06-26T11:18:21;4.30;;;2.10;;
52380;SDS011;38310;52.796;6.942;2023-06-26T11:20:49;4.82;;;1.80;;
52380;SDS011;38310;52.796;6.942;2023-06-26T11:23:14;3.65;;;1.83;;
52380;SDS011;38310;52.796;6.942;2023-06-26T11:25:47;5.90;;;2.20;;
52380;SDS011;38310;52.796;6.942;2023-06-26T11:28:13;6.43;;;1.90;;
52380;SDS011;38310;52.796;6.942;2023-06-26T11:30:38;7.63;;;2.47;;
52380;SDS011;38310;52.796;6.942;2023-06-26T11:33:07;5.82;;;2.22;;
52380;SDS011;38310;52.796;6.942;2023-06-26T11:35:34;4.80;;;2.03;;
52380;SDS011;38310;52.796;6.942;2023-06-26T11:38:00;5.85;;;1.75;;
52380;SDS011;38310;52.796;6.942;2023-06-26T11:40:34;7.20;;;1.77;;
52380;SDS011;38310;52.796;6.942;2023-06-26T11:43:01;4.88;;;1.80;;
52380;SDS011;38310;52.796;6.942;2023-06-26T11:45:31;4.47;;;1.60;;
52380;SDS011;38310;52.796;6.942;2023-06-26T11:47:58;5.03;;;1.70;;
52380;SDS011;38310;52.796;6.942;2023-06-26T11:50:24;6.20;;;1.50;;
52380;SDS011;38310;52.796;6.942;2023-06-26T11:52:54;4.90;;;1.30;;
52380;SDS011;38310;52.796;6.942;2023-06-26T11:55:23;5.05;;;1.60;;
52380;SDS011;38310;52.796;6.942;2023-06-26T11:57:50;5.45;;;1.42;;
52380;SDS011;38310;52.796;6.942;2023-06-26T12:00:19;5.97;;;1.80;;
52380;SDS011;38310;52.796;6.942;2023-06-26T12:02:45;3.33;;;1.45;;
52380;SDS011;38310;52.796;6.942;2023-06-26T12:05:17;4.38;;;1.60;;
52380;SDS011;38310;52.796;6.942;2023-06-26T12:07:44;6.90;;;2.03;;
52380;SDS011;38310;52.796;6.942;2023-06-26T12:10:12;4.22;;;2.00;;
52380;SDS011;38310;52.796;6.942;2023-06-26T12:12:40;5.47;;;1.95;;
52380;SDS011;38310;52.796;6.942;2023-06-26T12:15:06;5.60;;;2.03;;
52380;SDS011;38310;52.796;6.942;2023-06-26T12:17:33;5.13;;;1.80;;
52380;SDS011;38310;52.796;6.942;2023-06-26T12:20:04;4.88;;;2.22;;
52380;SDS011;38310;52.796;6.942;2023-06-26T12:22:34;4.22;;;1.63;;
52380;SDS011;38310;52.796;6.942;2023-06-26T12:25:00;7.18;;;1.95;;
52380;SDS011;38310;52.796;6.942;2023-06-26T12:27:26;7.55;;;1.83;;
52380;SDS011;38310;52.796;6.942;2023-06-26T12:29:53;5.22;;;1.73;;
52380;SDS011;38310;52.796;6.942;2023-06-26T12:32:19;5.88;;;1.75;;
52380;SDS011;38310;52.796;6.942;2023-06-26T12:34:48;6.38;;;1.83;;
52380;SDS011;38310;52.796;6.942;2023-06-26T12:37:15;5.35;;;1.58;;
52380;SDS011;38310;52.796;6.942;2023-06-26T12:39:49;4.25;;;1.55;;
52380;SDS011;38310;52.796;6.942;2023-06-26T12:42:18;5.60;;;1.65;;
52380;SDS011;38310;52.796;6.942;2023-06-26T12:44:52;4.13;;;1.30;;
52380;SDS011;38310;52.796;6.942;2023-06-26T12:47:25;4.75;;;1.33;;
52380;SDS011;38310;52.796;6.942;2023-06-26T12:49:52;3.83;;;1.38;;
52380;SDS011;38310;52.796;6.942;2023-06-26T12:52:19;8.70;;;1.45;;
52380;SDS011;38310;52.796;6.942;2023-06-26T12:54:46;5.57;;;1.40;;
52380;SDS011;38310;52.796;6.942;2023-06-26T12:57:12;5.68;;;1.50;;
52380;SDS011;38310;52.796;6.942;2023-06-26T12:59:41;3.45;;;0.95;;
52380;SDS011;38310;52.796;6.942;2023-06-26T13:02:07;9.98;;;1.40;;
52380;SDS011;38310;52.796;6.942;2023-06-26T13:04:34;3.55;;;0.93;;
52380;SDS011;38310;52.796;6.942;2023-06-26T13:07:00;3.92;;;0.98;;
52380;SDS011;38310;52.796;6.942;2023-06-26T13:09:26;3.55;;;1.00;;
52380;SDS011;38310;52.796;6.942;2023-06-26T13:11:58;2.73;;;1.00;;
52380;SDS011;38310;52.796;6.942;2023-06-26T13:14:24;5.80;;;1.63;;
52380;SDS011;38310;52.796;6.942;2023-06-26T13:16:51;6.00;;;1.17;;
52380;SDS011;38310;52.796;6.942;2023-06-26T13:19:16;9.23;;;1.85;;
52380;SDS011;38310;52.796;6.942;2023-06-26T13:21:42;5.05;;;1.58;;
52380;SDS011;38310;52.796;6.942;2023-06-26T13:24:08;7.55;;;1.30;;
52380;SDS011;38310;52.796;6.942;2023-06-26T13:26:34;6.05;;;1.33;;
52380;SDS011;38310;52.796;6.942;2023-06-26T13:29:00;4.93;;;1.75;;
52380;SDS011;38310;52.796;6.942;2023-06-26T13:31:26;4.22;;;1.20;;
52380;SDS011;38310;52.796;6.942;2023-06-26T13:33:52;7.10;;;1.65;;
52380;SDS011;38310;52.796;6.942;2023-06-26T13:36:18;6.60;;;1.40;;
52380;SDS011;38310;52.796;6.942;2023-06-26T13:38:44;6.60;;;1.55;;
52380;SDS011;38310;52.796;6.942;2023-06-26T13:41:10;7.53;;;1.70;;
52380;SDS011;38310;52.796;6.942;2023-06-26T13:43:36;6.25;;;1.45;;
52380;SDS011;38310;52.796;6.942;2023-06-26T13:46:02;3.38;;;1.10;;
52380;SDS011;38310;52.796;6.942;2023-06-26T13:48:28;6.25;;;1.25;;
52380;SDS011;38310;52.796;6.942;2023-06-26T13:50:54;5.47;;;1.23;;
52380;SDS011;38310;52.796;6.942;2023-06-26T13:53:21;7.05;;;1.42;;
52380;SDS011;38310;52.796;6.942;2023-06-26T13:55:47;4.88;;;1.02;;
52380;SDS011;38310;52.796;6.942;2023-06-26T13:58:13;7.20;;;1.38;;
52380;SDS011;38310;52.796;6.942;2023-06-26T14:00:39;3.15;;;1.00;;
52380;SDS011;38310;52.796;6.942;2023-06-26T14:03:06;3.97;;;1.10;;
52380;SDS011;38310;52.796;6.942;2023-06-26T14:05:36;7.05;;;1.00;;
52380;SDS011;38310;52.796;6.942;2023-06-26T14:08:03;5.72;;;1.08;;
52380;SDS011;38310;52.796;6.942;2023-06-26T14:10:29;3.47;;;1.08;;
52380;SDS011;38310;52.796;6.942;2023-06-26T14:12:56;4.30;;;1.10;;
52380;SDS011;38310;52.796;6.942;2023-06-26T14:15:21;6.65;;;1.20;;
52380;SDS011;38310;52.796;6.942;2023-06-26T14:17:47;6.88;;;1.17;;
52380;SDS011;38310;52.796;6.942;2023-06-26T14:20:15;6.70;;;1.45;;
52380;SDS011;38310;52.796;6.942;2023-06-26T14:22:41;4.13;;;0.98;;
52380;SDS011;38310;52.796;6.942;2023-06-26T14:25:12;6.13;;;1.13;;
52380;SDS011;38310;52.796;6.942;2023-06-26T14:27:38;7.55;;;1.50;;
52380;SDS011;38310;52.796;6.942;2023-06-26T14:30:04;4.75;;;1.40;;
52380;SDS011;38310;52.796;6.942;2023-06-26T14:32:31;5.43;;;1.40;;
52380;SDS011;38310;52.796;6.942;2023-06-26T14:34:57;8.55;;;1.48;;
52380;SDS011;38310;52.796;6.942;2023-06-26T14:37:22;8.77;;;1.52;;
52380;SDS011;38310;52.796;6.942;2023-06-26T14:39:49;5.13;;;1.13;;
52380;SDS011;38310;52.796;6.942;2023-06-26T14:42:15;5.13;;;1.27;;
52380;SDS011;38310;52.796;6.942;2023-06-26T14:44:41;5.38;;;1.10;;
52380;SDS011;38310;52.796;6.942;2023-06-26T14:47:06;5.28;;;1.50;;